sensor_id;sensor_type;location;lat;lon;timestamp;P1;durP1;ratioP1;P2;durP2;ratioP2
71665;SDS011;59503;53.486;10.196;2023-07-13T00:01:14;5.55;;;2.67;;
71665;SDS011;59503;53.486;10.196;2023-07-13T00:03:40;3.58;;;2.28;;
71665;SDS011;59503;53.486;10.196;2023-07-13T00:06:06;3.93;;;2.17;;
71665;SDS011;59503;53.486;10.196;2023-07-13T00:08:32;7.03;;;3.30;;
71665;SDS011;59503;53.486;10.196;2023-07-13T00:10:58;5.47;;;2.58;;
71665;SDS011;59503;53.486;10.196;2023-07-13T00:13:23;7.50;;;2.80;;
71665;SDS011;59503;53.486;10.196;2023-07-13T00:15:49;6.70;;;2.43;;
71665;SDS011;59503;53.486;10.196;2023-07-13T00:18:14;8.33;;;3.37;;
71665;SDS011;59503;53.486;10.196;2023-07-13T00:20:40;6.00;;;2.93;;
71665;SDS011;59503;53.486;10.196;2023-07-13T00:23:06;7.82;;;3.17;;
71665;SDS011;59503;53.486;10.196;2023-07-13T00:25:32;7.57;;;2.90;;
71665;SDS011;59503;53.486;10.196;2023-07-13T00:27:57;5.43;;;2.58;;
71665;SDS011;59503;53.486;10.196;2023-07-13T00:30:23;6.10;;;2.97;;
71665;SDS011;59503;53.486;10.196;2023-07-13T00:32:48;7.87;;;2.67;;
71665;SDS011;59503;53.486;10.196;2023-07-13T00:35:14;4.95;;;3.15;;
71665;SDS011;59503;53.486;10.196;2023-07-13T00:37:40;6.70;;;3.17;;
71665;SDS011;59503;53.486;10.196;2023-07-13T00:40:06;6.07;;;3.30;;
71665;SDS011;59503;53.486;10.196;2023-07-13T00:42:33;5.25;;;3.13;;
71665;SDS011;59503;53.486;10.196;2023-07-13T00:47:28;5.18;;;2.75;;
71665;SDS011;59503;53.486;10.196;2023-07-13T00:49:54;6.30;;;3.23;;
71665;SDS011;59503;53.486;10.196;2023-07-13T00:52:19;8.02;;;3.60;;
71665;SDS011;59503;53.486;10.196;2023-07-13T00:54:45;7.30;;;3.33;;
71665;SDS011;59503;53.486;10.196;2023-07-13T00:57:12;12.55;;;3.35;;
71665;SDS011;59503;53.486;10.196;2023-07-13T00:59:42;4.65;;;3.55;;
71665;SDS011;59503;53.486;10.196;2023-07-13T01:02:10;4.40;;;3.20;;
71665;SDS011;59503;53.486;10.196;2023-07-13T01:04:37;9.15;;;4.30;;
71665;SDS011;59503;53.486;10.196;2023-07-13T01:07:03;8.85;;;4.95;;
71665;SDS011;59503;53.486;10.196;2023-07-13T01:09:31;5.18;;;3.40;;
71665;SDS011;59503;53.486;10.196;2023-07-13T01:11:56;8.47;;;4.07;;
71665;SDS011;59503;53.486;10.196;2023-07-13T01:14:22;10.00;;;3.50;;
71665;SDS011;59503;53.486;10.196;2023-07-13T01:16:47;10.32;;;3.78;;
71665;SDS011;59503;53.486;10.196;2023-07-13T01:19:21;7.40;;;3.50;;
71665;SDS011;59503;53.486;10.196;2023-07-13T01:22:02;10.20;;;3.45;;
71665;SDS011;59503;53.486;10.196;2023-07-13T01:24:28;7.25;;;3.92;;
71665;SDS011;59503;53.486;10.196;2023-07-13T01:26:54;8.30;;;3.63;;
71665;SDS011;59503;53.486;10.196;2023-07-13T01:29:20;12.73;;;4.20;;
71665;SDS011;59503;53.486;10.196;2023-07-13T01:31:46;4.28;;;3.15;;
71665;SDS011;59503;53.486;10.196;2023-07-13T01:34:11;9.30;;;3.80;;
71665;SDS011;59503;53.486;10.196;2023-07-13T01:36:37;8.48;;;4.07;;
71665;SDS011;59503;53.486;10.196;2023-07-13T01:39:03;7.30;;;3.60;;
71665;SDS011;59503;53.486;10.196;2023-07-13T01:41:28;9.15;;;3.83;;
71665;SDS011;59503;53.486;10.196;2023-07-13T01:43:54;8.63;;;4.97;;
71665;SDS011;59503;53.486;10.196;2023-07-13T01:46:19;8.43;;;3.83;;
71665;SDS011;59503;53.486;10.196;2023-07-13T01:48:45;11.93;;;4.35;;
71665;SDS011;59503;53.486;10.196;2023-07-13T01:51:10;7.60;;;3.83;;
71665;SDS011;59503;53.486;10.196;2023-07-13T01:53:35;7.33;;;4.00;;
71665;SDS011;59503;53.486;10.196;2023-07-13T01:56:01;7.78;;;3.40;;
71665;SDS011;59503;53.486;10.196;2023-07-13T01:58:27;9.33;;;4.03;;
71665;SDS011;59503;53.486;10.196;2023-07-13T02:00:52;9.67;;;4.20;;
71665;SDS011;59503;53.486;10.196;2023-07-13T02:03:18;7.72;;;3.72;;
71665;SDS011;59503;53.486;10.196;2023-07-13T02:05:44;6.13;;;3.90;;
71665;SDS011;59503;53.486;10.196;2023-07-13T02:08:10;7.23;;;4.00;;
71665;SDS011;59503;53.486;10.196;2023-07-13T02:10:36;6.77;;;4.07;;
71665;SDS011;59503;53.486;10.196;2023-07-13T02:13:04;9.43;;;4.38;;
71665;SDS011;59503;53.486;10.196;2023-07-13T02:15:31;7.50;;;3.90;;
71665;SDS011;59503;53.486;10.196;2023-07-13T02:17:56;7.23;;;4.23;;
71665;SDS011;59503;53.486;10.196;2023-07-13T02:20:23;8.87;;;4.27;;
71665;SDS011;59503;53.486;10.196;2023-07-13T02:22:49;9.30;;;4.15;;
71665;SDS011;59503;53.486;10.196;2023-07-13T02:25:14;9.33;;;5.10;;
71665;SDS011;59503;53.486;10.196;2023-07-13T02:27:40;7.00;;;4.05;;
71665;SDS011;59503;53.486;10.196;2023-07-13T02:30:06;12.37;;;4.43;;
71665;SDS011;59503;53.486;10.196;2023-07-13T02:32:32;8.52;;;4.65;;
71665;SDS011;59503;53.486;10.196;2023-07-13T02:34:58;6.85;;;4.57;;
71665;SDS011;59503;53.486;10.196;2023-07-13T02:37:24;16.87;;;5.10;;
71665;SDS011;59503;53.486;10.196;2023-07-13T02:39:49;8.90;;;4.60;;
71665;SDS011;59503;53.486;10.196;2023-07-13T02:42:15;7.72;;;4.47;;
71665;SDS011;59503;53.486;10.196;2023-07-13T02:44:40;7.07;;;4.93;;
71665;SDS011;59503;53.486;10.196;2023-07-13T02:47:06;11.23;;;5.53;;
71665;SDS011;59503;53.486;10.196;2023-07-13T02:49:31;6.75;;;4.75;;
71665;SDS011;59503;53.486;10.196;2023-07-13T02:51:57;9.30;;;4.27;;
71665;SDS011;59503;53.486;10.196;2023-07-13T02:54:22;9.33;;;4.63;;
71665;SDS011;59503;53.486;10.196;2023-07-13T02:56:48;8.10;;;5.57;;
71665;SDS011;59503;53.486;10.196;2023-07-13T02:59:13;7.35;;;4.75;;
71665;SDS011;59503;53.486;10.196;2023-07-13T03:01:39;9.27;;;4.47;;
71665;SDS011;59503;53.486;10.196;2023-07-13T03:04:05;5.70;;;4.32;;
71665;SDS011;59503;53.486;10.196;2023-07-13T03:06:31;6.90;;;4.77;;
71665;SDS011;59503;53.486;10.196;2023-07-13T03:08:57;7.90;;;4.65;;
71665;SDS011;59503;53.486;10.196;2023-07-13T03:11:25;9.20;;;5.20;;
71665;SDS011;59503;53.486;10.196;2023-07-13T03:13:51;6.05;;;4.75;;
71665;SDS011;59503;53.486;10.196;2023-07-13T03:16:17;9.32;;;5.85;;
71665;SDS011;59503;53.486;10.196;2023-07-13T03:18:42;8.47;;;5.17;;
71665;SDS011;59503;53.486;10.196;2023-07-13T03:21:09;9.38;;;4.97;;
71665;SDS011;59503;53.486;10.196;2023-07-13T03:23:35;10.55;;;5.43;;
71665;SDS011;59503;53.486;10.196;2023-07-13T03:26:01;12.77;;;5.63;;
71665;SDS011;59503;53.486;10.196;2023-07-13T03:28:35;14.18;;;6.03;;
71665;SDS011;59503;53.486;10.196;2023-07-13T03:31:06;9.45;;;5.00;;
71665;SDS011;59503;53.486;10.196;2023-07-13T03:33:33;9.37;;;5.63;;
71665;SDS011;59503;53.486;10.196;2023-07-13T03:35:59;10.05;;;5.30;;
71665;SDS011;59503;53.486;10.196;2023-07-13T03:38:25;10.82;;;6.13;;
71665;SDS011;59503;53.486;10.196;2023-07-13T03:40:51;9.07;;;5.17;;
71665;SDS011;59503;53.486;10.196;2023-07-13T03:43:17;11.98;;;5.40;;
71665;SDS011;59503;53.486;10.196;2023-07-13T03:45:42;7.80;;;5.00;;
71665;SDS011;59503;53.486;10.196;2023-07-13T03:48:08;9.50;;;6.07;;
71665;SDS011;59503;53.486;10.196;2023-07-13T03:50:34;12.57;;;6.03;;
71665;SDS011;59503;53.486;10.196;2023-07-13T03:52:59;14.00;;;6.17;;
71665;SDS011;59503;53.486;10.196;2023-07-13T03:55:25;10.80;;;6.90;;
71665;SDS011;59503;53.486;10.196;2023-07-13T03:58:00;12.40;;;6.97;;
71665;SDS011;59503;53.486;10.196;2023-07-13T04:00:46;20.38;;;8.63;;
71665;SDS011;59503;53.486;10.196;2023-07-13T04:03:11;16.17;;;7.53;;
71665;SDS011;59503;53.486;10.196;2023-07-13T04:05:37;16.17;;;6.95;;
71665;SDS011;59503;53.486;10.196;2023-07-13T04:08:05;11.30;;;6.23;;
71665;SDS011;59503;53.486;10.196;2023-07-13T04:10:31;16.10;;;7.35;;
71665;SDS011;59503;53.486;10.196;2023-07-13T04:12:56;9.57;;;6.60;;
71665;SDS011;59503;53.486;10.196;2023-07-13T04:15:21;10.80;;;6.40;;
71665;SDS011;59503;53.486;10.196;2023-07-13T04:17:47;16.07;;;7.10;;
71665;SDS011;59503;53.486;10.196;2023-07-13T04:20:12;11.25;;;6.78;;
71665;SDS011;59503;53.486;10.196;2023-07-13T04:22:37;13.17;;;6.90;;
71665;SDS011;59503;53.486;10.196;2023-07-13T04:25:03;14.13;;;5.73;;
71665;SDS011;59503;53.486;10.196;2023-07-13T04:27:30;18.98;;;6.90;;
71665;SDS011;59503;53.486;10.196;2023-07-13T04:29:56;11.57;;;6.60;;
71665;SDS011;59503;53.486;10.196;2023-07-13T04:32:21;9.60;;;6.00;;
71665;SDS011;59503;53.486;10.196;2023-07-13T04:34:46;17.67;;;6.20;;
71665;SDS011;59503;53.486;10.196;2023-07-13T04:37:12;8.57;;;6.07;;
71665;SDS011;59503;53.486;10.196;2023-07-13T04:39:37;12.67;;;6.70;;
71665;SDS011;59503;53.486;10.196;2023-07-13T04:42:03;11.80;;;5.93;;
71665;SDS011;59503;53.486;10.196;2023-07-13T04:44:29;10.10;;;5.57;;
71665;SDS011;59503;53.486;10.196;2023-07-13T04:46:54;10.63;;;6.10;;
71665;SDS011;59503;53.486;10.196;2023-07-13T04:49:20;13.13;;;6.00;;
71665;SDS011;59503;53.486;10.196;2023-07-13T04:51:45;13.23;;;5.87;;
71665;SDS011;59503;53.486;10.196;2023-07-13T04:54:10;11.90;;;5.70;;
71665;SDS011;59503;53.486;10.196;2023-07-13T04:56:36;7.23;;;5.57;;
71665;SDS011;59503;53.486;10.196;2023-07-13T04:59:01;13.40;;;6.20;;
71665;SDS011;59503;53.486;10.196;2023-07-13T05:01:27;14.35;;;6.10;;
71665;SDS011;59503;53.486;10.196;2023-07-13T05:03:52;12.87;;;5.00;;
71665;SDS011;59503;53.486;10.196;2023-07-13T05:06:17;8.33;;;4.93;;
71665;SDS011;59503;53.486;10.196;2023-07-13T05:08:43;12.23;;;5.70;;
71665;SDS011;59503;53.486;10.196;2023-07-13T05:11:08;10.35;;;5.43;;
71665;SDS011;59503;53.486;10.196;2023-07-13T05:13:34;10.60;;;4.90;;
71665;SDS011;59503;53.486;10.196;2023-07-13T05:16:01;9.70;;;5.90;;
71665;SDS011;59503;53.486;10.196;2023-07-13T05:18:28;17.75;;;5.97;;
71665;SDS011;59503;53.486;10.196;2023-07-13T05:21:02;9.30;;;6.10;;
71665;SDS011;59503;53.486;10.196;2023-07-13T05:23:32;11.40;;;6.07;;
71665;SDS011;59503;53.486;10.196;2023-07-13T05:25:59;12.07;;;6.47;;
71665;SDS011;59503;53.486;10.196;2023-07-13T05:28:25;7.97;;;5.83;;
71665;SDS011;59503;53.486;10.196;2023-07-13T05:30:51;12.80;;;5.80;;
71665;SDS011;59503;53.486;10.196;2023-07-13T05:33:17;12.77;;;6.73;;
71665;SDS011;59503;53.486;10.196;2023-07-13T05:35:42;11.95;;;5.80;;
71665;SDS011;59503;53.486;10.196;2023-07-13T05:38:08;12.77;;;5.57;;
71665;SDS011;59503;53.486;10.196;2023-07-13T05:40:33;11.90;;;5.00;;
71665;SDS011;59503;53.486;10.196;2023-07-13T05:42:59;10.13;;;4.33;;
71665;SDS011;59503;53.486;10.196;2023-07-13T05:45:24;14.20;;;4.90;;
71665;SDS011;59503;53.486;10.196;2023-07-13T05:47:50;15.27;;;4.82;;
71665;SDS011;59503;53.486;10.196;2023-07-13T05:50:20;13.57;;;4.53;;
71665;SDS011;59503;53.486;10.196;2023-07-13T05:52:46;9.00;;;3.63;;
71665;SDS011;59503;53.486;10.196;2023-07-13T05:55:11;8.32;;;2.92;;
71665;SDS011;59503;53.486;10.196;2023-07-13T05:57:37;11.30;;;3.40;;
71665;SDS011;59503;53.486;10.196;2023-07-13T06:00:02;7.93;;;2.73;;
71665;SDS011;59503;53.486;10.196;2023-07-13T06:02:28;9.35;;;2.90;;
71665;SDS011;59503;53.486;10.196;2023-07-13T06:04:53;8.40;;;3.07;;
71665;SDS011;59503;53.486;10.196;2023-07-13T06:07:19;7.77;;;2.70;;
71665;SDS011;59503;53.486;10.196;2023-07-13T06:09:44;11.37;;;2.80;;
71665;SDS011;59503;53.486;10.196;2023-07-13T06:12:09;11.10;;;3.13;;
71665;SDS011;59503;53.486;10.196;2023-07-13T06:14:35;7.67;;;3.20;;
71665;SDS011;59503;53.486;10.196;2023-07-13T06:17:00;17.20;;;3.30;;
71665;SDS011;59503;53.486;10.196;2023-07-13T06:19:25;10.63;;;3.00;;
71665;SDS011;59503;53.486;10.196;2023-07-13T06:21:51;10.85;;;2.83;;
71665;SDS011;59503;53.486;10.196;2023-07-13T06:24:16;17.93;;;2.60;;
71665;SDS011;59503;53.486;10.196;2023-07-13T06:26:41;15.67;;;2.73;;
71665;SDS011;59503;53.486;10.196;2023-07-13T06:29:07;11.90;;;3.03;;
71665;SDS011;59503;53.486;10.196;2023-07-13T06:31:32;10.47;;;2.30;;
71665;SDS011;59503;53.486;10.196;2023-07-13T06:33:58;8.85;;;2.72;;
71665;SDS011;59503;53.486;10.196;2023-07-13T06:36:23;9.83;;;2.20;;
71665;SDS011;59503;53.486;10.196;2023-07-13T06:38:48;7.53;;;2.40;;
71665;SDS011;59503;53.486;10.196;2023-07-13T06:41:14;10.90;;;2.57;;
71665;SDS011;59503;53.486;10.196;2023-07-13T06:43:39;10.17;;;2.00;;
71665;SDS011;59503;53.486;10.196;2023-07-13T06:46:05;11.23;;;2.60;;
71665;SDS011;59503;53.486;10.196;2023-07-13T06:48:30;9.47;;;2.33;;
71665;SDS011;59503;53.486;10.196;2023-07-13T06:50:56;5.70;;;2.70;;
71665;SDS011;59503;53.486;10.196;2023-07-13T06:53:21;12.60;;;2.85;;
71665;SDS011;59503;53.486;10.196;2023-07-13T06:55:48;7.20;;;2.00;;
71665;SDS011;59503;53.486;10.196;2023-07-13T06:58:14;6.13;;;2.13;;
71665;SDS011;59503;53.486;10.196;2023-07-13T07:00:41;12.80;;;2.08;;
71665;SDS011;59503;53.486;10.196;2023-07-13T07:03:06;7.03;;;1.80;;
71665;SDS011;59503;53.486;10.196;2023-07-13T07:05:32;7.97;;;1.75;;
71665;SDS011;59503;53.486;10.196;2023-07-13T07:07:58;4.60;;;1.90;;
71665;SDS011;59503;53.486;10.196;2023-07-13T07:10:23;8.02;;;2.08;;
71665;SDS011;59503;53.486;10.196;2023-07-13T07:12:49;6.40;;;2.10;;
71665;SDS011;59503;53.486;10.196;2023-07-13T07:15:15;7.77;;;2.37;;
71665;SDS011;59503;53.486;10.196;2023-07-13T07:17:40;5.93;;;2.07;;
71665;SDS011;59503;53.486;10.196;2023-07-13T07:20:06;9.70;;;1.52;;
71665;SDS011;59503;53.486;10.196;2023-07-13T07:22:32;8.77;;;2.10;;
71665;SDS011;59503;53.486;10.196;2023-07-13T07:24:58;10.73;;;2.13;;
71665;SDS011;59503;53.486;10.196;2023-07-13T07:27:24;9.40;;;1.90;;
71665;SDS011;59503;53.486;10.196;2023-07-13T07:29:49;8.95;;;1.80;;
71665;SDS011;59503;53.486;10.196;2023-07-13T07:32:15;12.38;;;2.50;;
71665;SDS011;59503;53.486;10.196;2023-07-13T07:34:41;9.27;;;2.23;;
71665;SDS011;59503;53.486;10.196;2023-07-13T07:37:06;11.37;;;2.40;;
71665;SDS011;59503;53.486;10.196;2023-07-13T07:39:31;5.27;;;1.80;;
71665;SDS011;59503;53.486;10.196;2023-07-13T07:41:57;6.75;;;2.10;;
71665;SDS011;59503;53.486;10.196;2023-07-13T07:44:23;8.97;;;2.07;;
71665;SDS011;59503;53.486;10.196;2023-07-13T07:46:48;12.35;;;2.47;;
71665;SDS011;59503;53.486;10.196;2023-07-13T07:49:14;10.67;;;1.87;;
71665;SDS011;59503;53.486;10.196;2023-07-13T07:51:39;9.23;;;2.40;;
71665;SDS011;59503;53.486;10.196;2023-07-13T07:54:05;12.23;;;2.47;;
71665;SDS011;59503;53.486;10.196;2023-07-13T07:56:31;10.87;;;2.00;;
71665;SDS011;59503;53.486;10.196;2023-07-13T07:58:57;7.70;;;2.05;;
71665;SDS011;59503;53.486;10.196;2023-07-13T08:01:22;10.57;;;2.13;;
71665;SDS011;59503;53.486;10.196;2023-07-13T08:03:48;9.82;;;2.40;;
71665;SDS011;59503;53.486;10.196;2023-07-13T08:06:15;9.90;;;2.15;;
71665;SDS011;59503;53.486;10.196;2023-07-13T08:08:40;11.50;;;2.27;;
71665;SDS011;59503;53.486;10.196;2023-07-13T08:11:07;11.63;;;2.20;;
71665;SDS011;59503;53.486;10.196;2023-07-13T08:13:33;7.00;;;1.98;;
71665;SDS011;59503;53.486;10.196;2023-07-13T08:15:59;8.70;;;2.40;;
71665;SDS011;59503;53.486;10.196;2023-07-13T08:18:25;11.52;;;2.50;;
71665;SDS011;59503;53.486;10.196;2023-07-13T08:20:53;11.07;;;2.80;;
71665;SDS011;59503;53.486;10.196;2023-07-13T08:23:21;11.77;;;2.20;;
71665;SDS011;59503;53.486;10.196;2023-07-13T08:25:52;5.65;;;1.70;;
71665;SDS011;59503;53.486;10.196;2023-07-13T08:28:22;9.52;;;2.85;;
71665;SDS011;59503;53.486;10.196;2023-07-13T08:30:47;7.67;;;2.20;;
71665;SDS011;59503;53.486;10.196;2023-07-13T08:33:19;9.85;;;2.30;;
71665;SDS011;59503;53.486;10.196;2023-07-13T08:35:46;11.35;;;2.20;;
71665;SDS011;59503;53.486;10.196;2023-07-13T08:38:16;10.32;;;2.38;;
71665;SDS011;59503;53.486;10.196;2023-07-13T08:40:42;8.75;;;2.30;;
71665;SDS011;59503;53.486;10.196;2023-07-13T08:43:10;7.87;;;2.50;;
71665;SDS011;59503;53.486;10.196;2023-07-13T08:45:44;6.40;;;2.08;;
71665;SDS011;59503;53.486;10.196;2023-07-13T08:48:17;9.43;;;2.70;;
71665;SDS011;59503;53.486;10.196;2023-07-13T08:53:22;5.22;;;2.22;;
71665;SDS011;59503;53.486;10.196;2023-07-13T08:55:56;5.73;;;2.53;;
71665;SDS011;59503;53.486;10.196;2023-07-13T08:58:24;8.80;;;2.47;;
71665;SDS011;59503;53.486;10.196;2023-07-13T09:03:57;7.18;;;2.17;;
71665;SDS011;59503;53.486;10.196;2023-07-13T09:06:46;7.97;;;2.47;;
71665;SDS011;59503;53.486;10.196;2023-07-13T09:09:43;7.77;;;2.50;;
71665;SDS011;59503;53.486;10.196;2023-07-13T09:15:26;7.68;;;2.20;;
71665;SDS011;59503;53.486;10.196;2023-07-13T09:20:44;13.43;;;2.53;;
71665;SDS011;59503;53.486;10.196;2023-07-13T09:23:17;7.53;;;2.43;;
71665;SDS011;59503;53.486;10.196;2023-07-13T09:25:47;7.80;;;2.72;;
71665;SDS011;59503;53.486;10.196;2023-07-13T09:28:24;9.32;;;2.83;;
71665;SDS011;59503;53.486;10.196;2023-07-13T09:31:01;6.30;;;3.00;;
71665;SDS011;59503;53.486;10.196;2023-07-13T09:33:37;9.50;;;3.10;;
71665;SDS011;59503;53.486;10.196;2023-07-13T09:36:12;11.07;;;2.63;;
71665;SDS011;59503;53.486;10.196;2023-07-13T09:38:43;10.60;;;3.20;;
71665;SDS011;59503;53.486;10.196;2023-07-13T09:44:00;5.85;;;2.60;;
71665;SDS011;59503;53.486;10.196;2023-07-13T09:46:47;8.03;;;3.27;;
71665;SDS011;59503;53.486;10.196;2023-07-13T09:49:17;7.90;;;3.20;;
71665;SDS011;59503;53.486;10.196;2023-07-13T09:51:44;10.40;;;3.15;;
71665;SDS011;59503;53.486;10.196;2023-07-13T09:54:23;9.50;;;3.10;;
71665;SDS011;59503;53.486;10.196;2023-07-13T09:56:56;9.17;;;3.13;;
71665;SDS011;59503;53.486;10.196;2023-07-13T09:59:26;12.70;;;3.55;;
71665;SDS011;59503;53.486;10.196;2023-07-13T10:01:54;6.43;;;3.65;;
71665;SDS011;59503;53.486;10.196;2023-07-13T10:04:26;7.38;;;3.42;;
71665;SDS011;59503;53.486;10.196;2023-07-13T10:07:04;7.47;;;3.28;;
71665;SDS011;59503;53.486;10.196;2023-07-13T10:09:33;9.97;;;3.70;;
71665;SDS011;59503;53.486;10.196;2023-07-13T10:11:58;6.50;;;3.30;;
71665;SDS011;59503;53.486;10.196;2023-07-13T10:14:24;7.10;;;3.00;;
71665;SDS011;59503;53.486;10.196;2023-07-13T10:16:52;5.78;;;2.92;;
71665;SDS011;59503;53.486;10.196;2023-07-13T10:19:27;7.93;;;2.83;;
71665;SDS011;59503;53.486;10.196;2023-07-13T10:24:39;6.22;;;2.63;;
71665;SDS011;59503;53.486;10.196;2023-07-13T10:30:09;6.57;;;2.50;;
71665;SDS011;59503;53.486;10.196;2023-07-13T10:32:37;8.10;;;2.20;;
71665;SDS011;59503;53.486;10.196;2023-07-13T10:35:03;9.83;;;2.47;;
71665;SDS011;59503;53.486;10.196;2023-07-13T10:37:30;8.55;;;2.53;;
71665;SDS011;59503;53.486;10.196;2023-07-13T10:40:06;7.45;;;2.65;;
71665;SDS011;59503;53.486;10.196;2023-07-13T10:42:40;5.72;;;2.53;;
71665;SDS011;59503;53.486;10.196;2023-07-13T10:45:15;5.23;;;2.20;;
71665;SDS011;59503;53.486;10.196;2023-07-13T10:47:43;5.60;;;2.40;;
71665;SDS011;59503;53.486;10.196;2023-07-13T10:50:20;7.63;;;2.50;;
71665;SDS011;59503;53.486;10.196;2023-07-13T10:52:49;6.40;;;2.40;;
71665;SDS011;59503;53.486;10.196;2023-07-13T10:58:02;4.60;;;2.50;;
71665;SDS011;59503;53.486;10.196;2023-07-13T11:00:42;4.47;;;2.30;;
71665;SDS011;59503;53.486;10.196;2023-07-13T11:03:13;7.50;;;2.55;;
71665;SDS011;59503;53.486;10.196;2023-07-13T11:05:41;5.75;;;2.50;;
71665;SDS011;59503;53.486;10.196;2023-07-13T11:08:16;6.33;;;2.63;;
71665;SDS011;59503;53.486;10.196;2023-07-13T11:10:56;3.70;;;2.10;;
71665;SDS011;59503;53.486;10.196;2023-07-13T11:16:42;7.90;;;2.40;;
71665;SDS011;59503;53.486;10.196;2023-07-13T11:22:17;5.05;;;2.10;;
71665;SDS011;59503;53.486;10.196;2023-07-13T11:24:52;5.47;;;2.40;;
71665;SDS011;59503;53.486;10.196;2023-07-13T11:30:13;5.30;;;2.35;;
71665;SDS011;59503;53.486;10.196;2023-07-13T11:32:49;5.80;;;2.10;;
71665;SDS011;59503;53.486;10.196;2023-07-13T11:35:17;4.55;;;2.47;;
71665;SDS011;59503;53.486;10.196;2023-07-13T11:37:48;4.85;;;2.40;;
71665;SDS011;59503;53.486;10.196;2023-07-13T11:40:14;2.63;;;2.07;;
71665;SDS011;59503;53.486;10.196;2023-07-13T11:42:40;3.95;;;2.25;;
71665;SDS011;59503;53.486;10.196;2023-07-13T11:45:18;4.47;;;2.00;;
71665;SDS011;59503;53.486;10.196;2023-07-13T11:47:48;3.55;;;2.30;;
71665;SDS011;59503;53.486;10.196;2023-07-13T11:50:18;7.20;;;2.78;;
71665;SDS011;59503;53.486;10.196;2023-07-13T11:52:46;3.03;;;2.25;;
71665;SDS011;59503;53.486;10.196;2023-07-13T11:55:14;4.65;;;2.40;;
71665;SDS011;59503;53.486;10.196;2023-07-13T11:57:44;3.70;;;2.00;;
71665;SDS011;59503;53.486;10.196;2023-07-13T12:00:15;5.30;;;2.10;;
71665;SDS011;59503;53.486;10.196;2023-07-13T12:02:54;6.70;;;2.53;;
71665;SDS011;59503;53.486;10.196;2023-07-13T12:05:22;4.70;;;2.35;;
71665;SDS011;59503;53.486;10.196;2023-07-13T12:07:49;6.68;;;2.40;;
71665;SDS011;59503;53.486;10.196;2023-07-13T12:10:47;6.17;;;2.20;;
71665;SDS011;59503;53.486;10.196;2023-07-13T12:13:07;3.45;;;2.30;;
71665;SDS011;59503;53.486;10.196;2023-07-13T12:15:41;6.95;;;2.22;;
71665;SDS011;59503;53.486;10.196;2023-07-13T12:18:13;4.13;;;1.80;;
71665;SDS011;59503;53.486;10.196;2023-07-13T12:20:40;3.20;;;1.75;;
71665;SDS011;59503;53.486;10.196;2023-07-13T12:23:06;3.13;;;1.70;;
71665;SDS011;59503;53.486;10.196;2023-07-13T12:25:47;2.53;;;1.92;;
71665;SDS011;59503;53.486;10.196;2023-07-13T12:30:54;4.18;;;1.70;;
71665;SDS011;59503;53.486;10.196;2023-07-13T12:33:26;5.20;;;2.13;;
71665;SDS011;59503;53.486;10.196;2023-07-13T12:35:53;6.03;;;2.08;;
71665;SDS011;59503;53.486;10.196;2023-07-13T12:38:19;7.30;;;1.50;;
71665;SDS011;59503;53.486;10.196;2023-07-13T12:40:49;8.32;;;2.05;;
71665;SDS011;59503;53.486;10.196;2023-07-13T12:43:16;8.57;;;1.97;;
71665;SDS011;59503;53.486;10.196;2023-07-13T12:48:42;3.83;;;2.05;;
71665;SDS011;59503;53.486;10.196;2023-07-13T12:51:11;4.68;;;1.58;;
71665;SDS011;59503;53.486;10.196;2023-07-13T12:53:42;5.47;;;2.22;;
71665;SDS011;59503;53.486;10.196;2023-07-13T12:56:15;6.30;;;2.27;;
71665;SDS011;59503;53.486;10.196;2023-07-13T12:58:46;6.75;;;2.40;;
71665;SDS011;59503;53.486;10.196;2023-07-13T13:01:15;6.85;;;2.28;;
71665;SDS011;59503;53.486;10.196;2023-07-13T13:03:49;4.20;;;2.30;;
71665;SDS011;59503;53.486;10.196;2023-07-13T13:08:47;7.03;;;2.17;;
71665;SDS011;59503;53.486;10.196;2023-07-13T13:11:15;6.25;;;2.67;;
71665;SDS011;59503;53.486;10.196;2023-07-13T13:13:41;5.88;;;2.50;;
71665;SDS011;59503;53.486;10.196;2023-07-13T13:16:16;5.55;;;2.40;;
71665;SDS011;59503;53.486;10.196;2023-07-13T13:18:45;7.28;;;2.22;;
71665;SDS011;59503;53.486;10.196;2023-07-13T13:21:10;8.93;;;2.50;;
71665;SDS011;59503;53.486;10.196;2023-07-13T13:23:36;7.47;;;2.43;;
71665;SDS011;59503;53.486;10.196;2023-07-13T13:26:02;4.47;;;2.10;;
71665;SDS011;59503;53.486;10.196;2023-07-13T13:28:28;6.50;;;2.08;;
71665;SDS011;59503;53.486;10.196;2023-07-13T13:30:54;5.22;;;1.80;;
71665;SDS011;59503;53.486;10.196;2023-07-13T13:33:21;3.90;;;1.73;;
71665;SDS011;59503;53.486;10.196;2023-07-13T13:35:47;2.13;;;1.15;;
71665;SDS011;59503;53.486;10.196;2023-07-13T13:38:13;2.50;;;1.23;;
71665;SDS011;59503;53.486;10.196;2023-07-13T13:40:44;4.50;;;1.60;;
71665;SDS011;59503;53.486;10.196;2023-07-13T13:43:26;3.27;;;1.30;;
71665;SDS011;59503;53.486;10.196;2023-07-13T13:45:53;5.20;;;1.40;;
71665;SDS011;59503;53.486;10.196;2023-07-13T13:48:29;1.77;;;1.05;;
71665;SDS011;59503;53.486;10.196;2023-07-13T13:50:57;3.97;;;1.50;;
71665;SDS011;59503;53.486;10.196;2023-07-13T13:53:23;5.88;;;1.52;;
71665;SDS011;59503;53.486;10.196;2023-07-13T13:55:49;2.87;;;1.20;;
71665;SDS011;59503;53.486;10.196;2023-07-13T13:58:15;3.90;;;1.05;;
71665;SDS011;59503;53.486;10.196;2023-07-13T14:00:41;4.73;;;1.50;;
71665;SDS011;59503;53.486;10.196;2023-07-13T14:03:19;2.08;;;1.25;;
71665;SDS011;59503;53.486;10.196;2023-07-13T14:05:47;2.72;;;1.52;;
71665;SDS011;59503;53.486;10.196;2023-07-13T14:08:17;3.20;;;1.40;;
71665;SDS011;59503;53.486;10.196;2023-07-13T14:10:45;2.67;;;1.63;;
71665;SDS011;59503;53.486;10.196;2023-07-13T14:13:16;3.70;;;1.60;;
71665;SDS011;59503;53.486;10.196;2023-07-13T14:15:45;2.65;;;1.33;;
71665;SDS011;59503;53.486;10.196;2023-07-13T14:18:10;4.10;;;1.50;;
71665;SDS011;59503;53.486;10.196;2023-07-13T14:20:36;4.50;;;1.40;;
71665;SDS011;59503;53.486;10.196;2023-07-13T14:23:02;3.00;;;1.40;;
71665;SDS011;59503;53.486;10.196;2023-07-13T14:25:27;2.53;;;1.60;;
71665;SDS011;59503;53.486;10.196;2023-07-13T14:27:54;3.93;;;1.43;;
71665;SDS011;59503;53.486;10.196;2023-07-13T14:30:23;4.57;;;1.60;;
71665;SDS011;59503;53.486;10.196;2023-07-13T14:32:50;5.57;;;1.50;;
71665;SDS011;59503;53.486;10.196;2023-07-13T14:35:16;2.53;;;1.50;;
71665;SDS011;59503;53.486;10.196;2023-07-13T14:37:45;5.28;;;1.50;;
71665;SDS011;59503;53.486;10.196;2023-07-13T14:40:32;3.20;;;1.37;;
71665;SDS011;59503;53.486;10.196;2023-07-13T14:42:57;3.65;;;1.50;;
71665;SDS011;59503;53.486;10.196;2023-07-13T14:45:23;4.15;;;1.70;;
71665;SDS011;59503;53.486;10.196;2023-07-13T14:47:50;3.03;;;1.75;;
71665;SDS011;59503;53.486;10.196;2023-07-13T14:50:18;3.53;;;1.60;;
71665;SDS011;59503;53.486;10.196;2023-07-13T14:52:45;3.13;;;1.42;;
71665;SDS011;59503;53.486;10.196;2023-07-13T14:55:16;3.20;;;1.50;;
71665;SDS011;59503;53.486;10.196;2023-07-13T14:57:43;2.15;;;1.42;;
71665;SDS011;59503;53.486;10.196;2023-07-13T15:02:47;3.25;;;1.67;;
71665;SDS011;59503;53.486;10.196;2023-07-13T15:05:16;3.10;;;1.45;;
71665;SDS011;59503;53.486;10.196;2023-07-13T15:07:49;3.13;;;1.70;;
71665;SDS011;59503;53.486;10.196;2023-07-13T15:10:16;2.53;;;1.33;;
71665;SDS011;59503;53.486;10.196;2023-07-13T15:12:43;3.43;;;1.67;;
71665;SDS011;59503;53.486;10.196;2023-07-13T15:15:09;2.83;;;1.48;;
71665;SDS011;59503;53.486;10.196;2023-07-13T15:17:36;3.63;;;1.40;;
71665;SDS011;59503;53.486;10.196;2023-07-13T15:20:06;3.13;;;1.40;;